Time;durP1;ratioP1;P1;durP2;ratioP2;P2;SDS_P1;SDS_P2;PMS_P1;PMS_P2;Temp;Humidity;BMP_temperature;BMP_pressure;BME280_temperature;BME280_humidity;BME280_pressure;Samples;Min_cycle;Max_cycle;Signal;HPM_P1;HPM_P2
2023/07/29 00:00:46;;;;;;;1.83;1.50;;;19.80;99.90;;;;;;6127783;23;20163;-75
2023/07/29 00:03:12;;;;;;;2.57;1.80;;;19.80;99.90;;;;;;6176336;23;20453;-74
2023/07/29 00:05:38;;;;;;;1.60;1.23;;;19.90;99.90;;;;;;6149378;23;20351;-77
2023/07/29 00:08:04;;;;;;;1.50;1.40;;;19.90;99.90;;;;;;6124113;23;20143;-74
2023/07/29 00:10:37;;;;;;;1.47;1.30;;;19.80;99.90;;;;;;6089727;23;20432;-78
2023/07/29 00:13:03;;;;;;;1.70;1.50;;;19.70;99.90;;;;;;6068387;23;20167;-76
2023/07/29 00:15:29;;;;;;;2.30;1.90;;;19.70;99.90;;;;;;6066388;23;20431;-76
2023/07/29 00:17:55;;;;;;;2.80;1.90;;;19.60;99.90;;;;;;6064401;23;20389;-74
2023/07/29 00:20:20;;;;;;;1.70;1.57;;;19.50;99.90;;;;;;6085585;23;20572;-74
2023/07/29 00:22:49;;;;;;;1.90;1.70;;;19.40;99.90;;;;;;6085352;23;20177;-76
2023/07/29 00:25:16;;;;;;;2.07;1.87;;;19.40;99.90;;;;;;6084852;23;20422;-74
2023/07/29 00:27:42;;;;;;;1.77;1.60;;;19.30;99.90;;;;;;6061417;23;20396;-74
2023/07/29 00:30:08;;;;;;;2.00;1.80;;;19.20;99.90;;;;;;6084025;23;20399;-74
2023/07/29 00:32:35;;;;;;;1.90;1.70;;;19.20;99.90;;;;;;6083456;23;20636;-76
2023/07/29 00:35:01;;;;;;;2.43;1.93;;;19.20;99.90;;;;;;6108541;23;20368;-76
2023/07/29 00:37:28;;;;;;;2.00;1.70;;;19.10;99.90;;;;;;6060328;23;20216;-75
2023/07/29 00:39:54;;;;;;;2.00;1.80;;;19.10;99.90;;;;;;6058938;23;20176;-74
2023/07/29 00:42:19;;;;;;;1.97;1.70;;;19.00;99.90;;;;;;6110932;23;20961;-75
2023/07/29 00:44:45;;;;;;;2.10;1.90;;;18.90;99.90;;;;;;6143104;23;20147;-74
2023/07/29 00:47:13;;;;;;;2.20;2.00;;;18.90;99.90;;;;;;6144034;23;20155;-74
2023/07/29 00:49:39;;;;;;;2.30;2.10;;;18.80;99.90;;;;;;6142385;23;20213;-78
2023/07/29 00:52:05;;;;;;;2.20;2.00;;;18.80;99.90;;;;;;6142787;23;20453;-76
2023/07/29 00:54:31;;;;;;;2.07;1.87;;;18.70;99.90;;;;;;6143444;23;20143;-74
2023/07/29 00:56:56;;;;;;;1.80;1.60;;;18.70;99.90;;;;;;6115365;23;20147;-74
2023/07/29 00:59:22;;;;;;;2.87;2.23;;;18.70;99.90;;;;;;6143041;23;20251;-76
2023/07/29 01:01:48;;;;;;;2.40;2.20;;;18.70;99.90;;;;;;6144944;23;20603;-74
2023/07/29 01:04:14;;;;;;;2.13;1.90;;;18.70;99.90;;;;;;6145825;23;20128;-74
2023/07/29 01:07:06;;;;;;;2.10;1.90;;;18.70;99.90;;;;;;6167172;23;20370;-74
2023/07/29 01:09:58;;;;;;;2.57;2.37;;;18.70;99.90;;;;;;6142579;23;20387;-75
2023/07/29 01:12:35;;;;;;;2.50;2.30;;;18.70;99.90;;;;;;6170777;23;20441;-74
2023/07/29 01:15:16;;;;;;;2.13;1.90;;;18.70;99.90;;;;;;6167139;23;20783;-76
2023/07/29 01:18:04;;;;;;;4.13;2.50;;;18.70;99.90;;;;;;6141862;23;20397;-75
2023/07/29 01:20:33;;;;;;;2.20;2.00;;;18.70;99.90;;;;;;6149421;23;20844;-74
2023/07/29 01:22:59;;;;;;;2.70;2.23;;;18.70;99.90;;;;;;6166941;23;20442;-74
2023/07/29 01:25:24;;;;;;;2.30;2.10;;;18.70;99.90;;;;;;6143282;23;20366;-75
2023/07/29 01:27:55;;;;;;;2.30;2.10;;;18.70;99.90;;;;;;6168386;23;20401;-75
2023/07/29 01:30:25;;;;;;;2.27;1.70;;;18.70;99.90;;;;;;6120066;23;20174;-74
2023/07/29 01:33:10;;;;;;;2.20;2.00;;;18.60;99.90;;;;;;6121856;23;20804;-75
2023/07/29 01:36:01;;;;;;;1.80;1.60;;;18.70;99.90;;;;;;6142292;23;20351;-73
2023/07/29 01:38:36;;;;;;;2.40;2.20;;;18.70;99.90;;;;;;6116386;23;20382;-74
2023/07/29 01:41:02;;;;;;;2.70;2.50;;;18.70;99.90;;;;;;6163149;23;20498;-75
2023/07/29 01:43:29;;;;;;;2.90;2.70;;;18.70;99.90;;;;;;6139657;23;20371;-76
2023/07/29 01:45:55;;;;;;;2.60;2.40;;;18.70;99.90;;;;;;6118828;23;20406;-75
2023/07/29 01:48:22;;;;;;;2.40;2.20;;;18.80;99.90;;;;;;6147779;23;20370;-73
2023/07/29 01:50:49;;;;;;;3.50;2.23;;;18.80;99.90;;;;;;6144545;23;20426;-74
2023/07/29 01:53:15;;;;;;;2.47;2.27;;;18.80;99.90;;;;;;6118851;23;20451;-75
2023/07/29 01:55:41;;;;;;;3.00;2.70;;;18.80;99.90;;;;;;6119208;23;20684;-75
2023/07/29 01:58:07;;;;;;;3.17;2.97;;;18.80;99.90;;;;;;6142154;23;20168;-74
2023/07/29 02:00:35;;;;;;;3.70;3.40;;;18.80;99.90;;;;;;6121728;23;20383;-75
2023/07/29 02:03:01;;;;;;;3.43;3.13;;;18.70;99.90;;;;;;6141368;23;20438;-72
2023/07/29 02:05:26;;;;;;;2.93;2.60;;;18.80;99.90;;;;;;6146374;23;20135;-74
2023/07/29 02:07:52;;;;;;;3.57;3.27;;;18.70;99.90;;;;;;6145251;23;20270;-75
2023/07/29 02:10:18;;;;;;;3.57;3.27;;;18.70;99.90;;;;;;6141899;23;20178;-73
2023/07/29 02:12:44;;;;;;;2.80;2.60;;;18.70;99.90;;;;;;6120226;23;20205;-74
2023/07/29 02:15:10;;;;;;;3.07;2.80;;;18.70;99.90;;;;;;6169249;23;20382;-74
2023/07/29 02:17:36;;;;;;;2.47;2.27;;;18.60;99.90;;;;;;6171171;23;20143;-75
2023/07/29 02:20:03;;;;;;;2.43;2.23;;;18.70;99.90;;;;;;6120346;23;20189;-73
2023/07/29 02:22:29;;;;;;;2.07;1.87;;;18.70;99.90;;;;;;6167305;23;20438;-75
2023/07/29 02:24:55;;;;;;;1.93;1.73;;;18.60;99.90;;;;;;6142050;23;20351;-73
2023/07/29 02:27:21;;;;;;;1.70;1.60;;;18.50;99.90;;;;;;6143078;23;20433;-74
2023/07/29 02:29:47;;;;;;;1.73;1.63;;;18.50;99.90;;;;;;6141796;23;20168;-73
2023/07/29 02:32:12;;;;;;;1.70;1.50;;;18.40;99.90;;;;;;6168446;23;20194;-73
2023/07/29 02:34:38;;;;;;;1.53;1.37;;;18.40;99.90;;;;;;6141608;23;20167;-74
2023/07/29 02:37:04;;;;;;;1.40;1.30;;;18.40;99.90;;;;;;6142548;23;20144;-73
2023/07/29 02:39:30;;;;;;;1.20;1.03;;;18.40;99.90;;;;;;6141263;23;20263;-73
2023/07/29 02:41:58;;;;;;;1.27;1.13;;;18.30;99.90;;;;;;6167225;23;20406;-76
2023/07/29 02:44:24;;;;;;;1.30;1.20;;;18.30;99.90;;;;;;6142715;23;20383;-74
2023/07/29 02:46:52;;;;;;;1.20;1.10;;;18.30;99.90;;;;;;6145839;23;20445;-77
2023/07/29 02:49:17;;;;;;;1.47;1.37;;;18.30;99.90;;;;;;6120020;23;20374;-74
2023/07/29 02:51:43;;;;;;;1.03;0.93;;;18.30;99.90;;;;;;6146541;23;20386;-73
2023/07/29 02:54:09;;;;;;;1.20;1.10;;;18.30;99.90;;;;;;6144174;23;20139;-72
2023/07/29 02:56:34;;;;;;;1.13;0.97;;;18.30;99.90;;;;;;6145352;23;20147;-72
2023/07/29 02:59:01;;;;;;;1.47;1.00;;;18.30;99.90;;;;;;6147962;23;20170;-73
2023/07/29 03:01:28;;;;;;;1.60;0.90;;;18.30;99.90;;;;;;6152456;23;20192;-72
2023/07/29 03:03:53;;;;;;;1.00;0.80;;;18.30;99.90;;;;;;6126878;23;20406;-74
2023/07/29 03:06:19;;;;;;;1.40;1.17;;;18.20;99.90;;;;;;6119727;23;20143;-75
2023/07/29 03:08:45;;;;;;;1.07;0.90;;;18.20;99.90;;;;;;6167664;23;20140;-74
2023/07/29 03:11:14;;;;;;;1.90;1.20;;;18.20;99.90;;;;;;6167178;23;20218;-74
2023/07/29 03:13:41;;;;;;;1.63;1.30;;;18.20;99.90;;;;;;6117924;23;20155;-72
2023/07/29 03:16:08;;;;;;;1.00;0.87;;;18.20;99.90;;;;;;6141077;23;20435;-73
2023/07/29 03:18:35;;;;;;;1.10;0.90;;;18.10;99.90;;;;;;6117214;23;20391;-73
2023/07/29 03:21:02;;;;;;;1.00;0.90;;;18.00;99.90;;;;;;6145164;23;20788;-74
2023/07/29 03:23:29;;;;;;;1.00;0.80;;;18.10;99.90;;;;;;6146491;23;20386;-73
2023/07/29 03:25:59;;;;;;;1.00;0.83;;;18.00;99.90;;;;;;6121071;23;20379;-74
2023/07/29 03:28:30;;;;;;;1.30;1.10;;;18.00;99.90;;;;;;6121236;23;20374;-74
2023/07/29 03:30:56;;;;;;;0.90;0.80;;;18.00;99.90;;;;;;6147248;23;20456;-75
2023/07/29 03:33:24;;;;;;;1.10;0.90;;;18.00;99.90;;;;;;6120862;23;20655;-75
2023/07/29 03:35:50;;;;;;;1.10;0.77;;;18.00;99.90;;;;;;6145575;23;20386;-73
2023/07/29 03:38:15;;;;;;;1.20;0.80;;;17.90;99.90;;;;;;6167847;23;20363;-73
2023/07/29 03:40:42;;;;;;;1.00;0.70;;;18.00;99.90;;;;;;6165528;23;20194;-74
2023/07/29 03:43:08;;;;;;;1.20;0.80;;;17.90;99.90;;;;;;6164230;23;20252;-74
2023/07/29 03:45:35;;;;;;;0.90;0.60;;;18.00;99.90;;;;;;6141779;23;20452;-73
2023/07/29 03:48:01;;;;;;;1.00;0.80;;;17.90;99.90;;;;;;6117825;23;20432;-73
2023/07/29 03:50:29;;;;;;;1.20;0.70;;;17.90;99.90;;;;;;6116442;23;20703;-73
2023/07/29 03:52:55;;;;;;;0.90;0.70;;;17.90;99.90;;;;;;6116605;23;20155;-73
2023/07/29 03:55:20;;;;;;;1.77;1.00;;;17.90;99.90;;;;;;6139583;23;20380;-73
2023/07/29 03:57:46;;;;;;;1.00;0.80;;;17.90;99.90;;;;;;6138477;23;20192;-73
2023/07/29 04:00:12;;;;;;;1.20;1.00;;;17.90;99.90;;;;;;6169032;23;20562;-74
2023/07/29 04:02:46;;;;;;;1.43;0.97;;;17.90;99.90;;;;;;6139815;23;20173;-74
2023/07/29 04:05:12;;;;;;;1.10;0.90;;;17.90;99.90;;;;;;6134170;23;20380;-72
2023/07/29 04:07:38;;;;;;;0.97;0.83;;;17.90;99.90;;;;;;6134139;23;20788;-74
2023/07/29 04:10:04;;;;;;;1.00;0.80;;;17.90;99.90;;;;;;6133449;23;20338;-72
2023/07/29 04:12:30;;;;;;;1.10;0.90;;;17.90;99.90;;;;;;6136089;23;20497;-73
2023/07/29 04:14:56;;;;;;;1.17;0.80;;;17.90;99.90;;;;;;6161740;23;20386;-75
2023/07/29 04:17:21;;;;;;;1.10;0.90;;;17.90;99.90;;;;;;6133170;23;20183;-73
2023/07/29 04:19:47;;;;;;;0.97;0.87;;;17.90;99.90;;;;;;6136496;23;20181;-72
2023/07/29 04:22:13;;;;;;;0.90;0.80;;;17.80;99.90;;;;;;6144265;23;20159;-74
2023/07/29 04:24:39;;;;;;;1.20;0.93;;;17.80;99.90;;;;;;6139127;23;20150;-75
2023/07/29 04:27:05;;;;;;;1.77;1.30;;;17.80;99.90;;;;;;6158969;23;20371;-72
2023/07/29 04:29:30;;;;;;;1.50;1.40;;;17.80;99.90;;;;;;6107901;23;20174;-72
2023/07/29 04:31:56;;;;;;;1.80;1.60;;;17.80;99.90;;;;;;6133383;23;20386;-74
2023/07/29 04:34:21;;;;;;;2.13;1.70;;;17.80;99.90;;;;;;6159883;23;20146;-74
2023/07/29 04:36:48;;;;;;;1.43;1.27;;;17.80;99.90;;;;;;6159704;23;20137;-72
2023/07/29 04:39:14;;;;;;;1.30;1.20;;;17.80;99.90;;;;;;6109028;23;20141;-74
2023/07/29 04:41:40;;;;;;;1.40;1.00;;;17.80;99.90;;;;;;6107766;23;20446;-73
2023/07/29 04:44:06;;;;;;;2.07;1.40;;;17.80;99.90;;;;;;6109482;23;20366;-74
2023/07/29 04:46:32;;;;;;;1.57;1.30;;;17.80;99.90;;;;;;6134332;23;20382;-74
2023/07/29 04:48:58;;;;;;;1.47;1.23;;;17.80;99.90;;;;;;6157816;23;20799;-74
2023/07/29 04:51:24;;;;;;;1.83;1.50;;;17.80;99.90;;;;;;6159894;23;20386;-74
2023/07/29 04:53:50;;;;;;;1.60;1.50;;;17.80;99.90;;;;;;6133813;23;20139;-75
2023/07/29 04:56:16;;;;;;;1.70;1.33;;;17.90;99.90;;;;;;6159434;23;20748;-74
2023/07/29 04:58:41;;;;;;;1.20;0.97;;;17.90;99.90;;;;;;6134599;23;20367;-74
2023/07/29 05:01:07;;;;;;;1.40;1.20;;;18.00;99.90;;;;;;6159659;23;20346;-73
2023/07/29 05:03:33;;;;;;;1.50;1.37;;;18.00;99.90;;;;;;6134102;23;20461;-73
2023/07/29 05:05:59;;;;;;;1.60;1.40;;;18.00;99.90;;;;;;6134946;23;20234;-74
2023/07/29 05:08:27;;;;;;;1.80;1.47;;;18.00;99.90;;;;;;6134835;23;20810;-73
2023/07/29 05:10:53;;;;;;;1.20;1.10;;;18.00;99.90;;;;;;6158999;23;20387;-73
2023/07/29 05:13:19;;;;;;;1.47;1.27;;;18.00;99.90;;;;;;6133022;23;20375;-74
2023/07/29 05:15:47;;;;;;;1.50;1.13;;;18.10;99.90;;;;;;6133751;23;20430;-73
2023/07/29 05:18:12;;;;;;;2.40;1.10;;;18.10;99.90;;;;;;6159486;23;20383;-74
2023/07/29 05:20:38;;;;;;;0.97;0.77;;;18.10;99.90;;;;;;6159299;23;20395;-73
2023/07/29 05:23:04;;;;;;;1.27;0.87;;;18.20;99.90;;;;;;6133824;23;20165;-73
2023/07/29 05:25:30;;;;;;;1.33;1.03;;;18.20;99.90;;;;;;6134096;23;20430;-74
2023/07/29 05:27:57;;;;;;;1.37;0.87;;;18.20;99.90;;;;;;6133417;23;20359;-73
2023/07/29 05:30:23;;;;;;;1.07;0.97;;;18.20;99.90;;;;;;6133804;23;20171;-73
2023/07/29 05:32:48;;;;;;;1.20;0.97;;;18.30;99.90;;;;;;6133822;23;20471;-73
2023/07/29 05:35:14;;;;;;;1.40;1.00;;;18.20;99.90;;;;;;6135248;23;20147;-73
2023/07/29 05:37:41;;;;;;;1.07;0.90;;;18.20;99.90;;;;;;6133755;23;20174;-74
2023/07/29 05:40:08;;;;;;;1.07;0.93;;;18.20;99.90;;;;;;6132914;23;20790;-74
2023/07/29 05:42:34;;;;;;;1.20;0.90;;;18.20;99.90;;;;;;6133478;23;20410;-74
2023/07/29 05:45:00;;;;;;;1.20;0.83;;;18.20;99.90;;;;;;6159176;23;20379;-72
2023/07/29 05:47:25;;;;;;;1.27;1.00;;;18.20;99.90;;;;;;6160293;23;20437;-73
2023/07/29 05:49:52;;;;;;;1.37;0.90;;;18.20;99.90;;;;;;6133120;23;20229;-72
2023/07/29 05:52:18;;;;;;;1.20;1.00;;;18.20;99.90;;;;;;6161848;23;20371;-73
2023/07/29 05:54:44;;;;;;;1.20;1.00;;;18.20;99.90;;;;;;6135487;23;20378;-73
2023/07/29 05:57:11;;;;;;;1.20;1.07;;;18.20;99.90;;;;;;6110167;23;20517;-73
2023/07/29 05:59:36;;;;;;;1.20;1.00;;;18.30;99.90;;;;;;6158804;23;20395;-73
2023/07/29 06:02:02;;;;;;;1.40;1.30;;;18.40;99.90;;;;;;6171487;23;20394;-75
2023/07/29 06:04:28;;;;;;;1.17;0.90;;;18.50;99.90;;;;;;6142343;23;20494;-75
2023/07/29 06:06:55;;;;;;;1.10;0.90;;;18.50;99.90;;;;;;6141625;23;20371;-74
2023/07/29 06:09:25;;;;;;;1.60;1.17;;;18.50;99.90;;;;;;6143966;23;20201;-75
2023/07/29 06:11:55;;;;;;;1.63;1.53;;;18.40;99.90;;;;;;6148064;23;20378;-76
2023/07/29 06:14:20;;;;;;;1.67;1.57;;;18.40;99.90;;;;;;6145463;23;20382;-74
2023/07/29 06:16:47;;;;;;;2.10;1.60;;;18.30;99.90;;;;;;6120535;23;20199;-73
2023/07/29 06:19:13;;;;;;;1.57;1.40;;;18.40;99.90;;;;;;6177544;23;20430;-77
2023/07/29 06:21:40;;;;;;;2.40;2.20;;;18.40;99.90;;;;;;6125582;23;20199;-74
2023/07/29 06:24:06;;;;;;;2.70;2.10;;;18.30;99.90;;;;;;6143605;23;20377;-73
2023/07/29 06:26:31;;;;;;;2.50;1.93;;;18.30;99.90;;;;;;6146072;23;20135;-73
2023/07/29 06:28:57;;;;;;;2.40;2.10;;;18.20;99.90;;;;;;6147262;23;20141;-75
2023/07/29 06:31:23;;;;;;;2.50;2.30;;;18.20;99.90;;;;;;6142789;23;20167;-73
2023/07/29 06:33:48;;;;;;;2.90;2.70;;;18.20;99.90;;;;;;6147050;23;20159;-75
2023/07/29 06:36:14;;;;;;;3.10;2.80;;;18.10;99.90;;;;;;6122689;23;20152;-75
2023/07/29 06:38:40;;;;;;;2.90;2.60;;;18.10;99.90;;;;;;6120461;23;20162;-74
2023/07/29 06:41:06;;;;;;;2.60;2.40;;;18.10;99.90;;;;;;6169256;23;20162;-74
2023/07/29 06:43:32;;;;;;;3.43;2.60;;;18.20;99.90;;;;;;6145111;23;20729;-74
2023/07/29 06:45:58;;;;;;;3.83;2.80;;;18.20;99.90;;;;;;6145016;23;20190;-77
2023/07/29 06:48:23;;;;;;;4.00;2.93;;;18.10;99.90;;;;;;6172413;23;20192;-74
2023/07/29 06:50:50;;;;;;;3.20;2.90;;;18.00;99.90;;;;;;6145856;23;20171;-76
2023/07/29 06:53:21;;;;;;;3.90;3.60;;;18.00;99.90;;;;;;6156253;23;20270;-78
2023/07/29 06:55:47;;;;;;;4.03;3.40;;;18.00;99.90;;;;;;6126359;23;20381;-75
2023/07/29 06:58:13;;;;;;;3.10;2.80;;;18.10;99.90;;;;;;6171713;23;20367;-77
2023/07/29 07:00:39;;;;;;;4.07;2.97;;;18.20;99.90;;;;;;6147577;23;20506;-75
2023/07/29 07:03:04;;;;;;;7.50;3.87;;;18.30;99.90;;;;;;6148706;23;20179;-74
2023/07/29 07:05:31;;;;;;;4.77;3.60;;;18.30;99.90;;;;;;6146755;23;20145;-76
2023/07/29 07:07:57;;;;;;;5.73;4.70;;;18.20;99.90;;;;;;6126015;23;20379;-75
2023/07/29 07:10:22;;;;;;;6.03;5.40;;;18.30;99.90;;;;;;6124824;23;20198;-73
2023/07/29 07:12:48;;;;;;;4.17;3.77;;;18.20;99.90;;;;;;6130250;23;20181;-73
2023/07/29 07:15:14;;;;;;;5.53;5.03;;;18.20;99.90;;;;;;6170549;23;20155;-79
2023/07/29 07:17:39;;;;;;;7.17;5.40;;;18.20;99.90;;;;;;6145799;23;20155;-74
2023/07/29 07:20:06;;;;;;;6.83;4.40;;;18.20;99.90;;;;;;6146643;23;20170;-76
2023/07/29 07:22:31;;;;;;;9.20;5.90;;;18.30;99.90;;;;;;6147771;23;20209;-75
2023/07/29 07:24:57;;;;;;;9.60;6.10;;;18.40;99.90;;;;;;6125515;23;20355;-77
2023/07/29 07:27:23;;;;;;;7.93;5.27;;;18.40;99.90;;;;;;6150578;23;20218;-74
2023/07/29 07:29:50;;;;;;;5.83;5.20;;;18.30;99.90;;;;;;6128147;23;20198;-76
2023/07/29 07:32:16;;;;;;;5.43;4.73;;;18.20;99.90;;;;;;6123978;23;20187;-73
2023/07/29 07:34:42;;;;;;;6.93;5.07;;;18.20;99.90;;;;;;6146727;23;20476;-74
2023/07/29 07:37:08;;;;;;;11.47;5.27;;;18.20;99.90;;;;;;6149552;23;20143;-75
2023/07/29 07:39:33;;;;;;;5.30;4.33;;;18.30;99.90;;;;;;6150859;23;20302;-75
2023/07/29 07:42:01;;;;;;;5.00;4.50;;;18.50;99.90;;;;;;6148463;23;20411;-75
2023/07/29 07:44:30;;;;;;;4.90;4.20;;;18.50;99.90;;;;;;6061718;23;20185;-74
2023/07/29 07:46:57;;;;;;;5.50;5.00;;;18.70;99.90;;;;;;6039735;23;20464;-76
2023/07/29 07:49:23;;;;;;;4.80;4.40;;;18.60;99.90;;;;;;6062747;23;20169;-73
2023/07/29 07:51:49;;;;;;;5.27;4.30;;;18.50;99.90;;;;;;6036646;23;20739;-75
2023/07/29 07:54:14;;;;;;;5.30;4.00;;;18.50;99.90;;;;;;6038245;23;20201;-76
2023/07/29 07:56:42;;;;;;;4.50;4.20;;;18.50;99.90;;;;;;6038539;23;20188;-75
2023/07/29 07:59:08;;;;;;;5.30;4.80;;;18.60;99.90;;;;;;6036353;23;20192;-75
2023/07/29 08:01:38;;;;;;;6.00;3.80;;;18.70;99.90;;;;;;6038256;23;20424;-76
2023/07/29 08:04:04;;;;;;;6.63;3.53;;;18.90;99.90;;;;;;6039854;23;20753;-76
2023/07/29 08:06:31;;;;;;;14.40;5.47;;;18.80;99.90;;;;;;6089282;23;20341;-77
2023/07/29 08:08:57;;;;;;;9.17;3.80;;;18.80;99.90;;;;;;6065288;23;20382;-75
2023/07/29 08:11:23;;;;;;;6.30;3.90;;;19.00;99.90;;;;;;6063956;23;20393;-78
2023/07/29 08:13:50;;;;;;;4.17;3.77;;;19.30;99.90;;;;;;6062197;23;20389;-75
2023/07/29 08:16:15;;;;;;;4.30;3.40;;;19.40;99.90;;;;;;6135510;23;20407;-74
2023/07/29 08:18:43;;;;;;;6.80;3.70;;;19.80;99.90;;;;;;6124317;23;20163;-77
2023/07/29 08:21:09;;;;;;;6.43;4.20;;;20.10;99.90;;;;;;6126516;23;20438;-75
2023/07/29 08:23:36;;;;;;;3.10;2.80;;;20.40;99.90;;;;;;6124351;23;20395;-74
2023/07/29 08:26:05;;;;;;;2.77;2.57;;;20.50;99.90;;;;;;6150062;23;20382;-74
2023/07/29 08:28:37;;;;;;;3.80;2.60;;;20.80;99.90;;;;;;6123876;23;20382;-76
2023/07/29 08:31:03;;;;;;;3.33;3.03;;;21.10;99.90;;;;;;6127459;23;20840;-75
2023/07/29 08:33:29;;;;;;;2.80;2.60;;;21.30;99.90;;;;;;6147857;23;20788;-77
2023/07/29 08:35:57;;;;;;;1.80;1.70;;;21.80;99.90;;;;;;6174930;23;20629;-76
2023/07/29 08:38:25;;;;;;;3.20;2.30;;;22.20;99.90;;;;;;6153548;23;20391;-76
2023/07/29 08:41:36;;;;;;;2.10;1.90;;;22.60;99.90;;;;;;6101655;23;20395;-74
2023/07/29 08:44:16;;;;;;;2.53;1.70;;;22.90;99.90;;;;;;6126640;23;20402;-75
2023/07/29 08:46:43;;;;;;;1.93;1.70;;;23.00;99.90;;;;;;6150959;23;20716;-76
2023/07/29 08:49:23;;;;;;;1.70;1.50;;;22.90;99.90;;;;;;6152288;23;20367;-77
2023/07/29 08:51:53;;;;;;;5.07;2.33;;;22.70;99.90;;;;;;6175403;23;20449;-74
2023/07/29 08:54:19;;;;;;;2.03;1.77;;;22.50;99.90;;;;;;6124002;23;20406;-76
2023/07/29 08:56:46;;;;;;;2.57;1.60;;;22.50;99.90;;;;;;6125678;23;20367;-76
2023/07/29 08:59:13;;;;;;;2.33;1.47;;;22.40;99.90;;;;;;6126395;23;20158;-76
2023/07/29 09:01:44;;;;;;;1.73;1.50;;;22.50;99.90;;;;;;6153967;23;20446;-77
2023/07/29 09:04:12;;;;;;;1.90;1.50;;;22.60;99.90;;;;;;6150826;23;20374;-75
2023/07/29 09:06:39;;;;;;;2.60;1.67;;;22.80;99.90;;;;;;6125394;23;20442;-77
2023/07/29 09:09:07;;;;;;;2.03;1.30;;;23.00;99.90;;;;;;6150496;23;20369;-76
2023/07/29 09:11:33;;;;;;;2.10;1.90;;;23.00;99.90;;;;;;6067233;23;20887;-76
2023/07/29 09:13:59;;;;;;;2.23;1.50;;;22.90;99.90;;;;;;6066459;23;20396;-76
2023/07/29 09:16:34;;;;;;;4.60;2.67;;;22.80;99.90;;;;;;6068720;23;20184;-78
2023/07/29 09:19:03;;;;;;;5.80;1.60;;;22.70;99.90;;;;;;6093424;23;20135;-77
2023/07/29 09:21:34;;;;;;;2.70;2.13;;;22.50;99.90;;;;;;6069727;23;20405;-75
2023/07/29 09:24:04;;;;;;;2.90;1.73;;;22.50;99.90;;;;;;6094403;23;20357;-76
2023/07/29 09:26:31;;;;;;;2.00;1.73;;;22.50;99.90;;;;;;6043639;23;20388;-76
2023/07/29 09:28:58;;;;;;;1.87;1.67;;;22.50;99.90;;;;;;6114149;23;20337;-75
2023/07/29 09:31:26;;;;;;;2.90;2.27;;;22.50;99.90;;;;;;6045215;23;20412;-76
2023/07/29 09:33:58;;;;;;;1.97;1.57;;;22.40;98.70;;;;;;6090979;23;20369;-77
2023/07/29 09:36:24;;;;;;;2.10;1.90;;;22.50;99.90;;;;;;6090191;23;20542;-75
2023/07/29 09:38:57;;;;;;;2.73;2.03;;;22.70;99.90;;;;;;6089756;23;20793;-74
2023/07/29 09:41:26;;;;;;;3.00;1.77;;;22.80;99.90;;;;;;6067190;23;20392;-76
2023/07/29 09:44:01;;;;;;;2.27;1.67;;;22.90;99.90;;;;;;6128223;23;20407;-78
2023/07/29 09:46:38;;;;;;;2.40;1.73;;;22.90;99.90;;;;;;6153243;23;20416;-77
2023/07/29 09:49:12;;;;;;;2.23;1.70;;;23.00;99.90;;;;;;6130077;23;20410;-76
2023/07/29 09:51:39;;;;;;;1.90;1.50;;;23.10;99.80;;;;;;6155588;23;20387;-79
2023/07/29 09:54:06;;;;;;;5.47;1.87;;;23.30;99.20;;;;;;6152903;23;20198;-78
2023/07/29 09:56:33;;;;;;;3.07;1.30;;;23.50;96.20;;;;;;6128315;23;20386;-78
2023/07/29 09:59:00;;;;;;;1.80;1.30;;;23.80;94.50;;;;;;6153843;23;20363;-77
2023/07/29 10:01:35;;;;;;;2.17;1.73;;;24.10;93.10;;;;;;6128143;23;20394;-76
2023/07/29 10:04:05;;;;;;;3.43;2.00;;;24.20;90.70;;;;;;6127462;23;20378;-76
2023/07/29 10:06:31;;;;;;;1.93;1.73;;;24.30;89.70;;;;;;6127099;23;20394;-76
2023/07/29 10:08:59;;;;;;;1.80;1.60;;;24.20;85.40;;;;;;6152531;23;20371;-77
2023/07/29 10:11:25;;;;;;;2.00;1.80;;;24.10;83.30;;;;;;6150423;23;20438;-76
2023/07/29 10:13:52;;;;;;;2.20;1.57;;;24.10;83.30;;;;;;6129289;23;20376;-75
2023/07/29 10:16:19;;;;;;;2.50;1.93;;;24.10;83.20;;;;;;6114096;23;20690;-77
2023/07/29 10:18:49;;;;;;;2.40;2.03;;;24.30;82.10;;;;;;6150845;23;20368;-79
2023/07/29 10:21:16;;;;;;;2.70;1.90;;;24.30;80.00;;;;;;6124132;23;20833;-77
2023/07/29 10:23:48;;;;;;;2.50;2.10;;;24.30;78.50;;;;;;6124788;23;20642;-78
2023/07/29 10:26:16;;;;;;;3.17;2.60;;;24.30;78.00;;;;;;6127097;23;20376;-78
2023/07/29 10:28:47;;;;;;;2.40;2.13;;;24.30;77.90;;;;;;6126152;23;20379;-76
2023/07/29 10:31:18;;;;;;;2.30;2.10;;;24.20;77.60;;;;;;6101907;23;20427;-76
2023/07/29 10:33:46;;;;;;;2.50;1.83;;;24.10;78.10;;;;;;6104064;23;20395;-75
2023/07/29 10:36:13;;;;;;;2.80;2.20;;;23.80;79.10;;;;;;6101778;23;20636;-77
2023/07/29 10:38:43;;;;;;;2.30;1.77;;;23.60;80.60;;;;;;6125332;23;20369;-76
2023/07/29 10:41:10;;;;;;;2.50;2.13;;;23.50;82.40;;;;;;6123626;23;20476;-77
2023/07/29 10:43:42;;;;;;;3.10;1.83;;;23.30;85.60;;;;;;6102704;23;20442;-78
2023/07/29 10:46:23;;;;;;;2.63;1.97;;;23.10;89.40;;;;;;6078355;23;20355;-76
2023/07/29 10:48:56;;;;;;;4.40;1.93;;;22.80;91.60;;;;;;6124027;23;20364;-76
2023/07/29 10:51:37;;;;;;;2.30;2.10;;;22.60;93.70;;;;;;6124237;23;20423;-75
2023/07/29 10:54:16;;;;;;;2.83;1.77;;;22.40;96.00;;;;;;6100223;23;20387;-77
2023/07/29 10:56:50;;;;;;;2.33;1.97;;;22.40;98.30;;;;;;6089761;23;20381;-77
2023/07/29 10:59:16;;;;;;;2.90;2.07;;;22.60;99.20;;;;;;6090505;23;20381;-78
2023/07/29 11:01:52;;;;;;;2.17;1.97;;;22.80;99.20;;;;;;6091474;23;20409;-75
2023/07/29 11:07:15;;;;;;;3.03;2.20;;;23.10;98.10;;;;;;6187736;23;20471;-78
2023/07/29 11:10:18;;;;;;;2.40;2.20;;;23.30;97.90;;;;;;6161631;23;20405;-77
2023/07/29 11:12:54;;;;;;;3.07;2.10;;;23.60;96.70;;;;;;6186430;23;20417;-77
2023/07/29 11:18:08;;;;;;;3.00;2.30;;;24.00;94.60;;;;;;6182706;23;20467;-76
2023/07/29 11:23:11;;;;;;;2.40;2.20;;;24.30;91.70;;;;;;6182373;23;20430;-79
2023/07/29 11:25:39;;;;;;;3.00;2.13;;;24.20;91.70;;;;;;6132246;23;20583;-76
2023/07/29 11:28:26;;;;;;;7.90;3.10;;;24.20;89.20;;;;;;6155870;23;20397;-78
2023/07/29 11:30:53;;;;;;;2.67;2.40;;;24.20;90.30;;;;;;6130509;23;20402;-76
2023/07/29 11:33:21;;;;;;;2.63;2.43;;;24.40;88.50;;;;;;6129397;23;20431;-77
2023/07/29 11:35:51;;;;;;;2.80;2.30;;;24.50;86.00;;;;;;6129790;23;20402;-76
2023/07/29 11:41:07;;;;;;;4.60;2.50;;;24.40;84.20;;;;;;6208223;23;20444;-76
2023/07/29 11:43:36;;;;;;;4.17;2.67;;;24.40;81.50;;;;;;6161337;23;20527;-77
2023/07/29 11:46:03;;;;;;;2.63;2.30;;;24.40;83.40;;;;;;6184433;23;20394;-77
2023/07/29 11:48:37;;;;;;;2.60;2.40;;;24.40;84.00;;;;;;6162690;23;20393;-77
2023/07/29 11:51:05;;;;;;;2.60;2.30;;;24.40;84.20;;;;;;6210035;23;20386;-79
2023/07/29 11:53:35;;;;;;;2.80;2.50;;;24.60;82.70;;;;;;6152013;23;20442;-77
2023/07/29 11:56:06;;;;;;;2.50;2.23;;;24.70;82.00;;;;;;6103139;23;20427;-77
2023/07/29 11:58:55;;;;;;;4.20;2.30;;;24.90;79.40;;;;;;6100983;23;20384;-78
2023/07/29 12:01:28;;;;;;;2.40;2.20;;;25.10;76.30;;;;;;6206945;22;20447;-78
2023/07/29 12:03:57;;;;;;;2.50;1.87;;;25.20;75.40;;;;;;6245309;23;20463;-77
2023/07/29 12:06:27;;;;;;;3.03;2.20;;;25.30;75.60;;;;;;6219648;23;20451;-78
2023/07/29 12:08:52;;;;;;;2.33;1.77;;;25.20;75.10;;;;;;6219261;23;20369;-76
2023/07/29 12:11:18;;;;;;;3.57;2.30;;;25.10;72.50;;;;;;6221154;23;20395;-78
2023/07/29 12:20:53;;;;;;;2.97;2.13;;;25.10;73.70;;;;;;6201475;23;20445;-76
2023/07/29 12:23:25;;;;;;;2.47;1.93;;;25.10;72.50;;;;;;6175878;23;20424;-77
2023/07/29 12:26:04;;;;;;;2.37;1.90;;;25.00;73.70;;;;;;6161784;23;20378;-77
2023/07/29 12:28:32;;;;;;;2.20;2.00;;;25.00;73.70;;;;;;6151124;23;20399;-77
2023/07/29 12:31:09;;;;;;;1.93;1.70;;;25.00;74.50;;;;;;6143560;23;21426;-77
2023/07/29 12:33:41;;;;;;;2.10;1.90;;;25.10;73.40;;;;;;6161069;23;20142;-79
2023/07/29 12:36:10;;;;;;;3.33;1.90;;;24.90;75.00;;;;;;6184960;23;20457;-77
2023/07/29 12:42:01;;;;;;;2.07;1.70;;;24.90;73.60;;;;;;6204422;23;20185;-78
2023/07/29 12:44:36;;;;;;;3.07;2.67;;;24.90;74.10;;;;;;6203023;23;20388;-78
2023/07/29 12:49:41;;;;;;;2.30;2.10;;;24.90;72.50;;;;;;6182655;23;20406;-77
2023/07/29 12:52:07;;;;;;;2.13;1.80;;;25.00;72.00;;;;;;6160842;23;20385;-78
2023/07/29 12:54:56;;;;;;;2.80;2.07;;;25.10;70.40;;;;;;6211933;23;20423;-80
2023/07/29 13:00:03;;;;;;;1.90;1.57;;;25.10;62.80;;;;;;6203914;23;20437;-78
2023/07/29 13:08:59;;;;;;;3.40;2.10;;;25.60;64.50;;;;;;6182881;23;20398;-77
2023/07/29 13:11:32;;;;;;;2.37;1.40;;;25.80;64.30;;;;;;6157151;23;20454;-76
2023/07/29 13:14:18;;;;;;;4.40;2.00;;;25.90;64.20;;;;;;6181360;23;20139;-79
2023/07/29 13:16:46;;;;;;;4.60;2.13;;;26.20;63.70;;;;;;6134442;23;20386;-79
2023/07/29 13:19:20;;;;;;;3.73;2.50;;;26.30;62.90;;;;;;6156962;23;20343;-78
2023/07/29 13:36:45;;;;;;;2.37;2.17;;;24.40;70.40;;;;;;6150566;23;20383;-79
2023/07/29 13:39:11;;;;;;;6.33;2.63;;;23.70;77.00;;;;;;6124805;23;20387;-79
2023/07/29 13:41:44;;;;;;;2.70;2.20;;;23.20;86.10;;;;;;6126321;23;20423;-78